CheckWX is a tool to help pilots better visualize weather data.  It is not intended as a substitute for an official pre-flight weather briefing.

16:32:59 UTC

VTUW METAR
Nakhon Phanom Airport
Thailand
Current

4 hours ago

VTUW 231300Z 05002KT 7000 NSC 27/19 Q1011 NOSIG
Observed
Jan-23 @ 13:00 UTC
Wind
  • 050° at 2 KTS
Visibility
7,000 meters
Flight Rules
MVFR
Cloud Levels
  • Clear skies
Temperature
27°C / 81°F
Dewpoint
19°C / 66°F
Heat Index
28°C / 83°F
Humidity
62%
Altimeter
29.85" Hg
Pressure
1010.92 hPa
Previous

5 hours ago

VTUW 231200Z 36002KT 7000 FEW045 29/19 Q1011 NOSIG
Observed
Jan-23 @ 12:00 UTC
Wind
  • 360° at 2 KTS
Visibility
7,000 meters
Flight Rules
MVFR
Cloud Levels
  • Few at 4,500' AGL
Temperature
29°C / 84°F
Dewpoint
19°C / 66°F
Heat Index
30°C / 86°F
Humidity
55%
Altimeter
29.85" Hg
Pressure
1010.92 hPa
Previous

6 hours ago

VTUW 231100Z 12004KT 7000 FEW045 31/18 Q1010 NOSIG
Observed
Jan-23 @ 11:00 UTC
Wind
  • 120° at 4 KTS
Visibility
7,000 meters
Flight Rules
MVFR
Cloud Levels
  • Few at 4,500' AGL
Temperature
31°C / 88°F
Dewpoint
18°C / 64°F
Heat Index
32°C / 90°F
Humidity
46%
Altimeter
29.82" Hg
Pressure
1009.92 hPa